Clyde River Airport
CYCY : now visible

Aeroporto :











RITROVATECI SU...

 
LOGIN :

Iscrizione | Disclaimer

   EN    FR    IT 

 









Sommario :    VFR   VFR Marginale   IFR   IFR Intensivo   IFR Molto Intensivo
Visibilità : 
Base nubi : 
>= 8 km
>= 3000ft
5 / 8 km
1000 / 3000 ft
1500m / 5 km
500 / 1000 ft
800 / 1500m
200 / 500 ft
< 800m
< 200 ft
Simboli :   Temporali  Nebbia  Neve Forte  Precipitazioni Forti  Vento > 20 kt






- Altitudine del aeroporto : 87 ft
- Codice IATA : YCY


CYCY - Clyde River

ULTIMO METAR :
  • 270500Z AUTO 26006KT 9SM CLR M33/M36 A2979 RMK SLP096

METARs OBSOLETI :
  • 270400Z AUTO 29004KT 9SM CLR M33/M36 A2980 RMK SLP097
  • 270300Z AUTO 25006KT 9SM CLR M33/M35 A2980 RMK SLP098

TAF TAF CYCY
Valido dal 27 a 01 ore il 27 a 13 ore UTC


270038Z 2701/2713 26008KT P6SM FEW040
TEMPO 2701/2713 P6SM -SN BKN040 RMK FCST BASED ON AUTO OBS. NXT FCST BY 270700Z



MetMap, La meteo Aeronautica in un colpo d'occhio ! - Copyright ORBIFLY Dicembre 2007 - Disclaimer

ORBIFLY MET'MAP TEAM :

Programmazione e sviluppo : Alexandra Zaïnal
Concezione : Baudouin d'Aumeries
Aiuto per la programmazione : Marc-Olivier Méhu
Supporto tecnico e logistico : Manuel Goepfert
Aiuto per la traduzione : Arnaldo La Scala

Contatto : metmap@orbifly.com




FONTI E CREDITI :

   NOAA       Earth
Advisory